logo
Search for airport 
image banner adimage banner adimage banner ad
image banner ad

EHG008 - Malden

Located in , Netherlands

ICAO - , IATA -

Data provided by Airmate  

General information

Coordinates: N51°47'9" E5°52'48"
Elevation is 84 feet MSL.
 
View others Airports in Gelderland

Operational data

Special qualification required
Current time UTC:
Current local time:
Weather at : EHVK - Uden/Volkel ( 19 km )
METAR: EHVK 141655Z AUTO 23010KT 200V260 9999 OVC190 21/12 Q1012 BLU
TAF: TAF EHVK 141647Z 1417/1505 24006KT CAVOK BECMG 1422/1501 18004KT
View NOTAMs / SUP AIP / TFR affecting this airport [VIEW]
Communications frequencies: [VIEW]

Runways:

Airport contact information

Address: Netherlands

Satellite view of EHG008